Time;durP1;ratioP1;P1;durP2;ratioP2;P2;SDS_P1;SDS_P2;PMS_P1;PMS_P2;Temp;Humidity;BMP_temperature;BMP_pressure;BME280_temperature;BME280_humidity;BME280_pressure;Samples;Min_cycle;Max_cycle;Signal;HPM_P1;HPM_P2
2021/01/23 00:00:58;;;;;;;1.00;1.00;;;1.20;99.90;;;;;;5013492;28;20430;-82
2021/01/23 00:03:25;;;;;;;1.10;1.00;;;1.20;99.90;;;;;;5013329;28;20456;-83
2021/01/23 00:05:51;;;;;;;0.90;0.90;;;1.20;99.90;;;;;;5013333;28;20963;-83
2021/01/23 00:08:18;;;;;;;1.20;1.20;;;1.20;99.90;;;;;;5013394;28;20442;-83
2021/01/23 00:10:45;;;;;;;1.00;0.90;;;1.20;99.90;;;;;;5013594;28;20463;-84
2021/01/23 00:13:11;;;;;;;1.03;0.90;;;1.20;99.90;;;;;;5024236;28;20599;-85
2021/01/23 00:15:37;;;;;;;1.17;1.17;;;1.10;99.90;;;;;;5035427;28;20409;-84
2021/01/23 00:18:04;;;;;;;1.63;1.00;;;1.10;99.90;;;;;;5047204;28;20462;-85
2021/01/23 00:20:30;;;;;;;0.77;0.77;;;1.10;99.90;;;;;;5035356;28;20421;-76
2021/01/23 00:22:56;;;;;;;1.60;1.50;;;1.10;99.90;;;;;;5033309;28;20459;-76
2021/01/23 00:25:23;;;;;;;0.90;0.90;;;1.00;99.90;;;;;;5036522;28;20934;-76
2021/01/23 00:27:49;;;;;;;0.90;0.90;;;1.10;99.90;;;;;;5036674;28;20453;-76
2021/01/23 00:30:16;;;;;;;0.77;0.70;;;1.10;99.90;;;;;;5036664;28;20446;-76
2021/01/23 00:32:42;;;;;;;0.90;0.90;;;1.10;99.90;;;;;;5036522;28;20425;-76
2021/01/23 00:35:10;;;;;;;0.80;0.80;;;1.20;99.90;;;;;;5036655;28;20474;-76
2021/01/23 00:37:36;;;;;;;0.60;0.60;;;1.20;99.90;;;;;;5036832;28;20420;-86
2021/01/23 00:40:03;;;;;;;0.70;0.70;;;1.20;99.90;;;;;;5037205;28;20474;-86
2021/01/23 00:42:30;;;;;;;1.13;0.70;;;1.20;99.90;;;;;;5036918;28;20442;-86
2021/01/23 00:44:56;;;;;;;1.77;0.70;;;1.10;99.90;;;;;;5036721;28;20515;-86
2021/01/23 00:47:22;;;;;;;0.63;0.60;;;1.10;99.90;;;;;;5037926;28;20461;-86
2021/01/23 00:49:49;;;;;;;0.70;0.70;;;1.20;99.90;;;;;;5036911;28;20437;-86
2021/01/23 00:52:15;;;;;;;0.90;0.90;;;1.10;99.90;;;;;;5036268;28;20425;-78
2021/01/23 00:54:41;;;;;;;0.70;0.70;;;1.10;99.90;;;;;;5036197;28;20447;-78
2021/01/23 00:57:07;;;;;;;1.20;0.90;;;1.10;99.90;;;;;;5035943;28;20922;-78
2021/01/23 00:59:34;;;;;;;1.30;0.80;;;1.20;99.90;;;;;;5035905;28;20444;-78
2021/01/23 01:02:01;;;;;;;0.70;0.70;;;1.10;99.90;;;;;;5036393;28;20781;-78
2021/01/23 01:04:27;;;;;;;1.10;1.00;;;1.20;99.90;;;;;;5035995;28;20513;-76
2021/01/23 01:06:53;;;;;;;0.83;0.83;;;1.20;99.90;;;;;;5035890;28;20429;-76
2021/01/23 01:09:19;;;;;;;0.80;0.80;;;1.30;99.90;;;;;;5035909;28;20481;-76
2021/01/23 01:11:45;;;;;;;1.73;0.93;;;1.20;99.90;;;;;;5035844;28;20450;-76
2021/01/23 01:14:12;;;;;;;1.17;1.07;;;1.20;99.90;;;;;;5036191;28;20540;-86
2021/01/23 01:16:39;;;;;;;0.80;0.80;;;1.20;99.90;;;;;;5036588;28;20844;-86
2021/01/23 01:19:05;;;;;;;1.23;1.13;;;1.20;99.90;;;;;;5036531;28;20449;-85
2021/01/23 01:21:31;;;;;;;6.53;1.00;;;1.20;99.90;;;;;;5036502;28;20516;-86
2021/01/23 01:23:57;;;;;;;1.90;0.80;;;1.20;99.90;;;;;;5036308;28;20861;-85
2021/01/23 01:26:24;;;;;;;0.80;0.80;;;1.20;99.90;;;;;;5036360;28;20806;-86
2021/01/23 01:28:50;;;;;;;1.93;0.87;;;1.30;99.90;;;;;;5036041;28;20809;-86
2021/01/23 01:31:17;;;;;;;1.03;0.97;;;1.30;99.90;;;;;;5035847;28;20447;-85
2021/01/23 01:33:44;;;;;;;1.00;1.00;;;1.30;99.90;;;;;;5036006;28;20443;-85
2021/01/23 01:36:10;;;;;;;0.80;0.80;;;1.20;99.90;;;;;;5034407;28;20430;-84
2021/01/23 01:38:36;;;;;;;1.00;1.00;;;1.30;99.90;;;;;;5035619;28;20467;-84
2021/01/23 01:41:03;;;;;;;0.73;0.73;;;1.20;99.90;;;;;;5027705;28;20413;-84
2021/01/23 01:43:29;;;;;;;0.70;0.70;;;1.20;99.90;;;;;;5035353;28;20457;-84
2021/01/23 01:45:55;;;;;;;1.30;1.00;;;1.30;99.90;;;;;;5035502;28;20436;-84
2021/01/23 01:48:22;;;;;;;0.67;0.67;;;1.30;99.90;;;;;;5035009;28;20974;-83
2021/01/23 01:50:51;;;;;;;1.00;1.00;;;1.30;99.90;;;;;;5035298;28;20447;-83
2021/01/23 01:53:21;;;;;;;0.80;0.80;;;1.30;99.90;;;;;;5035095;28;20442;-83
2021/01/23 01:55:48;;;;;;;0.87;0.87;;;1.30;99.90;;;;;;5034938;28;20940;-83
2021/01/23 01:58:14;;;;;;;0.70;0.70;;;1.40;99.90;;;;;;5035176;28;20466;-83
2021/01/23 02:00:41;;;;;;;1.07;1.00;;;1.40;99.90;;;;;;5035173;28;20831;-83
2021/01/23 02:03:35;;;;;;;1.10;1.00;;;1.40;99.90;;;;;;5035632;28;20457;-83
2021/01/23 02:06:17;;;;;;;0.73;0.73;;;1.40;99.90;;;;;;5035622;28;20431;-83
2021/01/23 02:08:52;;;;;;;1.37;1.00;;;1.30;99.90;;;;;;5034583;28;20481;-83
2021/01/23 02:11:28;;;;;;;1.13;1.00;;;1.40;99.90;;;;;;5034553;28;20459;-83
2021/01/23 02:14:01;;;;;;;1.40;1.30;;;1.30;99.90;;;;;;5034356;28;20535;-82
2021/01/23 02:16:34;;;;;;;2.37;1.33;;;1.30;99.90;;;;;;5034522;28;20887;-82
2021/01/23 02:19:03;;;;;;;1.67;1.10;;;1.40;99.90;;;;;;5034703;28;20471;-82
2021/01/23 02:22:04;;;;;;;2.03;1.27;;;1.40;99.90;;;;;;5034414;28;20447;-82
2021/01/23 02:24:32;;;;;;;1.20;1.10;;;1.40;99.90;;;;;;5034571;28;20555;-83
2021/01/23 02:27:15;;;;;;;1.33;1.00;;;1.40;99.90;;;;;;5034449;28;20451;-82
2021/01/23 02:29:56;;;;;;;1.27;1.17;;;1.40;99.90;;;;;;5034111;28;20470;-82
2021/01/23 02:32:24;;;;;;;1.13;1.03;;;1.40;99.90;;;;;;5034446;28;20856;-81
2021/01/23 02:34:51;;;;;;;1.03;1.03;;;1.40;99.90;;;;;;5034846;28;20417;-82
2021/01/23 02:37:19;;;;;;;1.20;1.17;;;1.40;99.90;;;;;;5034926;28;20469;-82
2021/01/23 02:39:46;;;;;;;1.43;1.17;;;1.40;99.90;;;;;;5033956;28;20983;-81
2021/01/23 02:42:12;;;;;;;1.20;1.10;;;1.40;99.90;;;;;;5034389;28;20438;-81
2021/01/23 02:44:39;;;;;;;1.03;0.87;;;1.40;99.90;;;;;;5034046;28;20485;-82
2021/01/23 02:47:05;;;;;;;0.77;0.73;;;1.30;99.90;;;;;;5033974;28;20426;-82
2021/01/23 02:49:32;;;;;;;0.77;0.77;;;1.30;99.90;;;;;;5034008;28;20817;-81
2021/01/23 02:52:04;;;;;;;1.00;1.00;;;1.30;99.90;;;;;;5034083;28;20811;-82
2021/01/23 02:54:38;;;;;;;0.70;0.70;;;1.30;99.90;;;;;;5033906;28;20415;-82
2021/01/23 02:57:09;;;;;;;0.60;0.60;;;1.30;99.90;;;;;;5033930;28;20418;-82
2021/01/23 02:59:38;;;;;;;0.93;0.80;;;1.30;99.90;;;;;;5033950;28;20474;-82
2021/01/23 03:02:10;;;;;;;0.80;0.80;;;1.40;99.90;;;;;;5033954;28;20458;-83
2021/01/23 03:04:38;;;;;;;0.67;0.67;;;1.40;99.90;;;;;;5033905;28;20474;-83
2021/01/23 03:07:05;;;;;;;1.43;0.60;;;1.40;99.90;;;;;;5033893;28;20450;-84
2021/01/23 03:09:32;;;;;;;0.60;0.60;;;1.30;99.90;;;;;;5033986;28;20478;-83
2021/01/23 03:11:58;;;;;;;0.80;0.70;;;1.30;99.90;;;;;;5033771;28;20451;-83
2021/01/23 03:14:25;;;;;;;0.70;0.70;;;1.40;99.90;;;;;;5033752;28;20427;-81
2021/01/23 03:16:53;;;;;;;0.77;0.63;;;1.40;99.90;;;;;;5033663;28;20497;-75
2021/01/23 03:19:19;;;;;;;0.90;0.80;;;1.40;99.90;;;;;;5033319;28;20440;-74
2021/01/23 03:21:48;;;;;;;0.60;0.60;;;1.40;99.90;;;;;;5033479;28;20434;-75
2021/01/23 03:24:14;;;;;;;0.70;0.60;;;1.40;99.90;;;;;;5033096;28;20449;-74
2021/01/23 03:26:41;;;;;;;0.60;0.60;;;1.40;99.90;;;;;;5034195;28;20461;-75
2021/01/23 03:29:07;;;;;;;0.50;0.50;;;1.40;99.90;;;;;;5033017;28;20481;-75
2021/01/23 03:31:34;;;;;;;0.80;0.80;;;1.40;99.90;;;;;;5033140;28;20951;-74
2021/01/23 03:34:00;;;;;;;1.17;0.80;;;1.40;99.90;;;;;;5033288;28;20447;-74
2021/01/23 03:36:27;;;;;;;0.73;0.73;;;1.40;99.90;;;;;;5033337;28;20485;-74
2021/01/23 03:38:54;;;;;;;0.67;0.67;;;1.40;99.90;;;;;;5032970;28;20980;-75
2021/01/23 03:41:20;;;;;;;0.60;0.60;;;1.40;99.90;;;;;;5032911;28;20948;-75
2021/01/23 03:43:46;;;;;;;0.93;0.60;;;1.40;99.90;;;;;;5033140;28;20493;-75
2021/01/23 03:46:13;;;;;;;0.60;0.60;;;1.40;99.90;;;;;;5033208;28;20436;-75
2021/01/23 03:48:40;;;;;;;0.80;0.80;;;1.40;99.90;;;;;;5032926;28;20466;-76
2021/01/23 03:51:06;;;;;;;0.70;0.70;;;1.40;99.90;;;;;;5033169;28;20450;-75
2021/01/23 03:53:33;;;;;;;0.67;0.67;;;1.40;99.90;;;;;;5032931;28;20975;-75
2021/01/23 03:56:00;;;;;;;1.17;0.70;;;1.40;99.90;;;;;;5032937;28;20437;-76
2021/01/23 03:58:26;;;;;;;2.07;0.80;;;1.50;99.90;;;;;;5034530;28;20471;-75
2021/01/23 04:00:53;;;;;;;0.90;0.90;;;1.40;99.90;;;;;;5037646;28;20458;-76
2021/01/23 04:03:19;;;;;;;0.77;0.73;;;1.50;99.90;;;;;;5037394;28;20430;-76
2021/01/23 04:05:45;;;;;;;1.33;0.93;;;1.50;99.90;;;;;;5037156;28;20454;-76
2021/01/23 04:08:12;;;;;;;1.27;0.83;;;1.50;99.90;;;;;;5036839;28;20835;-76
2021/01/23 04:10:38;;;;;;;1.10;1.00;;;1.50;99.90;;;;;;5037047;28;20429;-76
2021/01/23 04:13:05;;;;;;;0.80;0.80;;;1.40;99.90;;;;;;5036584;28;20485;-76
2021/01/23 04:15:31;;;;;;;0.80;0.80;;;1.40;99.90;;;;;;5036708;28;20932;-76
2021/01/23 04:17:58;;;;;;;1.07;1.03;;;1.40;99.90;;;;;;5036846;28;20445;-76
2021/01/23 04:20:24;;;;;;;0.97;0.87;;;1.40;99.90;;;;;;5036794;28;20517;-76
2021/01/23 04:22:50;;;;;;;0.90;0.90;;;1.50;99.90;;;;;;5036745;28;20462;-76
2021/01/23 04:25:16;;;;;;;1.30;1.20;;;1.40;99.90;;;;;;5036426;28;20489;-76
2021/01/23 04:27:43;;;;;;;1.10;1.00;;;1.40;99.90;;;;;;5036695;28;20448;-79
2021/01/23 04:30:12;;;;;;;2.00;1.30;;;1.50;99.90;;;;;;5036420;28;20972;-79
2021/01/23 04:32:38;;;;;;;0.90;0.90;;;1.40;99.90;;;;;;5036740;28;20439;-79
2021/01/23 04:35:06;;;;;;;0.87;0.87;;;1.40;99.90;;;;;;5036656;28;20446;-79
2021/01/23 04:37:32;;;;;;;1.63;1.30;;;1.40;99.90;;;;;;5036585;28;20510;-79
2021/01/23 04:39:58;;;;;;;1.27;1.17;;;1.40;99.90;;;;;;5036450;28;20517;-79
2021/01/23 04:42:24;;;;;;;1.20;1.00;;;1.40;99.90;;;;;;5036494;28;20447;-79
2021/01/23 04:44:50;;;;;;;1.47;1.00;;;1.40;99.90;;;;;;5036536;28;20456;-79
2021/01/23 04:47:18;;;;;;;1.30;1.20;;;1.40;99.90;;;;;;5036407;28;20432;-79
2021/01/23 04:49:44;;;;;;;1.10;1.00;;;1.40;99.90;;;;;;5036310;28;20433;-79
2021/01/23 04:52:10;;;;;;;0.90;0.90;;;1.30;99.90;;;;;;5036275;28;20450;-79
2021/01/23 04:54:36;;;;;;;0.80;0.80;;;1.40;99.90;;;;;;5036111;28;20988;-82
2021/01/23 04:57:03;;;;;;;2.07;0.83;;;1.30;99.90;;;;;;5036176;28;20947;-83
2021/01/23 04:59:30;;;;;;;1.00;0.80;;;1.30;99.90;;;;;;5036448;28;20477;-82
2021/01/23 05:02:19;;;;;;;1.67;1.10;;;1.30;99.90;;;;;;5036076;28;20425;-83
2021/01/23 05:04:46;;;;;;;4.67;1.10;;;1.30;99.90;;;;;;5035895;28;21002;-83
2021/01/23 05:07:24;;;;;;;1.00;1.00;;;1.30;99.90;;;;;;5036014;28;20397;-82
2021/01/23 05:09:51;;;;;;;0.90;0.90;;;1.30;99.90;;;;;;5036299;28;20449;-82
2021/01/23 05:12:33;;;;;;;2.50;1.67;;;1.30;99.90;;;;;;5035684;28;20449;-82
2021/01/23 05:14:59;;;;;;;1.17;0.80;;;1.30;99.90;;;;;;5036125;28;20447;-82
2021/01/23 05:17:26;;;;;;;1.07;1.00;;;1.20;99.90;;;;;;5035921;28;20454;-82
2021/01/23 05:19:53;;;;;;;1.33;1.23;;;1.20;99.90;;;;;;5036036;28;20983;-82
2021/01/23 05:22:19;;;;;;;1.07;0.90;;;1.20;99.90;;;;;;5036102;28;20447;-82
2021/01/23 05:24:50;;;;;;;1.10;1.10;;;1.20;99.90;;;;;;5035539;28;20505;-82
2021/01/23 05:27:16;;;;;;;1.17;1.10;;;1.20;99.90;;;;;;5036373;28;20426;-82
2021/01/23 05:29:57;;;;;;;1.13;1.03;;;1.20;99.90;;;;;;5035877;28;20426;-82
2021/01/23 05:32:23;;;;;;;1.27;1.17;;;1.10;99.90;;;;;;5035979;28;20440;-82
2021/01/23 05:34:51;;;;;;;0.90;0.90;;;1.10;99.90;;;;;;5035752;28;20421;-82
2021/01/23 05:37:37;;;;;;;0.93;0.93;;;1.10;99.90;;;;;;5035751;28;20421;-82
2021/01/23 05:40:04;;;;;;;1.27;1.17;;;1.10;99.90;;;;;;5035270;28;20946;-82
2021/01/23 05:42:31;;;;;;;1.20;1.10;;;1.10;99.90;;;;;;5035671;28;20421;-82
2021/01/23 05:45:09;;;;;;;1.10;1.00;;;1.20;99.90;;;;;;5035528;28;20885;-82
2021/01/23 05:47:36;;;;;;;1.40;1.30;;;1.20;99.90;;;;;;5035460;28;20433;-82
2021/01/23 05:50:04;;;;;;;1.50;1.40;;;1.10;99.90;;;;;;5035051;28;20463;-82
2021/01/23 05:52:30;;;;;;;1.30;1.20;;;1.10;99.90;;;;;;5035382;28;20429;-82
2021/01/23 05:54:57;;;;;;;1.40;1.30;;;1.10;99.90;;;;;;5035199;28;20480;-82
2021/01/23 05:57:24;;;;;;;1.37;1.27;;;1.10;99.90;;;;;;5035638;28;20436;-82
2021/01/23 05:59:51;;;;;;;1.60;1.50;;;1.20;99.90;;;;;;5034885;28;20462;-82
2021/01/23 06:02:19;;;;;;;2.03;1.60;;;1.10;99.90;;;;;;5034891;28;20425;-81
2021/01/23 06:04:49;;;;;;;1.60;1.50;;;1.10;99.90;;;;;;5035017;28;20486;-81
2021/01/23 06:07:46;;;;;;;1.40;1.30;;;1.10;99.90;;;;;;5035178;28;20780;-82
2021/01/23 06:10:49;;;;;;;1.73;1.63;;;1.10;99.90;;;;;;5034907;28;20413;-82
2021/01/23 06:13:35;;;;;;;1.97;1.87;;;1.10;99.90;;;;;;5034675;28;20456;-81
2021/01/23 06:16:01;;;;;;;1.70;1.60;;;1.10;99.90;;;;;;5035015;28;20458;-81
2021/01/23 06:18:29;;;;;;;1.53;1.43;;;1.10;99.90;;;;;;5034805;28;20458;-82
2021/01/23 06:20:57;;;;;;;1.57;1.47;;;1.10;99.90;;;;;;5034144;28;20426;-81
2021/01/23 06:23:49;;;;;;;1.80;1.70;;;1.10;99.90;;;;;;5034299;28;20433;-81
2021/01/23 06:26:16;;;;;;;1.50;1.40;;;1.10;99.90;;;;;;5034685;28;20784;-81
2021/01/23 06:28:52;;;;;;;1.70;1.60;;;1.00;99.90;;;;;;5034373;28;20445;-81
2021/01/23 06:31:33;;;;;;;1.50;1.40;;;1.00;99.90;;;;;;5034271;28;20421;-82
2021/01/23 06:34:01;;;;;;;1.67;1.57;;;1.00;99.90;;;;;;5034804;28;20412;-81
2021/01/23 06:36:28;;;;;;;1.63;1.30;;;1.00;99.90;;;;;;5034533;28;20413;-81
2021/01/23 06:39:16;;;;;;;2.43;1.50;;;1.00;99.90;;;;;;5034435;28;20465;-81
2021/01/23 06:41:43;;;;;;;2.33;2.13;;;1.00;99.90;;;;;;5026902;28;20410;-81
2021/01/23 06:44:17;;;;;;;3.13;1.70;;;1.00;99.90;;;;;;5034329;28;20457;-81
2021/01/23 06:46:55;;;;;;;2.17;1.93;;;1.00;99.90;;;;;;5034194;28;20508;-81
2021/01/23 06:49:22;;;;;;;1.90;1.80;;;0.90;99.90;;;;;;5033980;28;20984;-81
2021/01/23 06:51:48;;;;;;;1.60;1.50;;;0.90;99.90;;;;;;5034245;28;20481;-81
2021/01/23 06:54:15;;;;;;;2.00;1.17;;;0.90;99.90;;;;;;5034118;28;20467;-81
2021/01/23 06:56:43;;;;;;;1.97;1.87;;;0.90;99.90;;;;;;5033758;28;20421;-81
2021/01/23 06:59:22;;;;;;;2.77;2.30;;;0.90;99.90;;;;;;5033896;28;20820;-81
2021/01/23 07:01:59;;;;;;;1.80;1.70;;;0.90;99.90;;;;;;5034291;28;20424;-81
2021/01/23 07:04:26;;;;;;;2.10;1.90;;;0.90;99.90;;;;;;5033705;28;20482;-81
2021/01/23 07:06:56;;;;;;;2.00;1.63;;;0.90;99.90;;;;;;5033753;28;20414;-81
2021/01/23 07:09:48;;;;;;;2.10;1.87;;;0.80;99.90;;;;;;5033919;28;20471;-75
2021/01/23 07:12:34;;;;;;;2.57;1.73;;;0.90;99.90;;;;;;5033413;28;20468;-80
2021/01/23 07:15:01;;;;;;;1.70;1.60;;;0.90;99.90;;;;;;5033375;28;20421;-81
2021/01/23 07:17:27;;;;;;;1.63;1.53;;;0.90;99.90;;;;;;5033708;28;20442;-80
2021/01/23 07:19:54;;;;;;;3.17;2.33;;;0.90;99.90;;;;;;5033735;28;20429;-84
2021/01/23 07:22:21;;;;;;;3.40;2.37;;;0.90;99.90;;;;;;5033494;28;20475;-82
2021/01/23 07:24:49;;;;;;;3.03;1.80;;;0.90;99.90;;;;;;5033590;28;20495;-81
2021/01/23 07:27:15;;;;;;;2.83;1.97;;;0.80;99.90;;;;;;5033651;28;20429;-81
2021/01/23 07:29:48;;;;;;;3.10;1.87;;;0.80;99.90;;;;;;5033389;28;20823;-81
2021/01/23 07:32:14;;;;;;;4.93;2.07;;;0.80;99.90;;;;;;5033202;28;20427;-81
2021/01/23 07:34:53;;;;;;;2.30;2.10;;;0.80;99.90;;;;;;5033270;28;20454;-81
2021/01/23 07:37:44;;;;;;;3.10;2.43;;;0.90;99.90;;;;;;5033295;28;20386;-81
2021/01/23 07:40:13;;;;;;;3.37;2.27;;;0.90;99.90;;;;;;5033350;28;20801;-81
2021/01/23 07:42:40;;;;;;;3.40;2.50;;;0.90;99.90;;;;;;5033360;28;20496;-81
2021/01/23 07:45:09;;;;;;;3.17;2.80;;;1.00;99.90;;;;;;5033201;28;20486;-80
2021/01/23 07:47:36;;;;;;;4.60;2.73;;;1.00;99.90;;;;;;5033237;28;20438;-81
2021/01/23 07:50:05;;;;;;;5.30;3.30;;;1.00;99.90;;;;;;5033153;28;20668;-80
2021/01/23 07:52:31;;;;;;;5.23;3.60;;;1.00;99.90;;;;;;5032835;28;20787;-81
2021/01/23 07:54:58;;;;;;;6.23;3.23;;;1.00;99.90;;;;;;5032949;28;20421;-81
2021/01/23 07:57:24;;;;;;;4.10;2.93;;;1.10;99.90;;;;;;5033025;28;20446;-80
2021/01/23 07:59:50;;;;;;;2.83;2.57;;;1.20;99.90;;;;;;5032978;28;20466;-80
2021/01/23 08:02:18;;;;;;;3.50;2.80;;;1.10;99.90;;;;;;5032800;28;20991;-80
2021/01/23 08:04:47;;;;;;;3.40;2.70;;;1.10;99.90;;;;;;5032738;28;20537;-80
2021/01/23 08:07:18;;;;;;;5.50;2.53;;;1.20;99.90;;;;;;5033688;28;20771;-80
2021/01/23 08:09:44;;;;;;;4.10;2.73;;;1.30;99.90;;;;;;5033934;28;20463;-81
2021/01/23 08:12:18;;;;;;;3.37;2.60;;;1.30;99.90;;;;;;5037104;28;20948;-80
2021/01/23 08:14:54;;;;;;;3.30;3.00;;;1.40;99.90;;;;;;5033001;28;20451;-80
2021/01/23 08:17:36;;;;;;;3.87;2.90;;;1.40;99.90;;;;;;5032703;28;20438;-81
2021/01/23 08:20:03;;;;;;;3.50;2.30;;;1.40;99.90;;;;;;5032985;28;20448;-80
2021/01/23 08:22:29;;;;;;;3.07;2.87;;;1.50;99.90;;;;;;5032822;28;20425;-80
2021/01/23 08:24:56;;;;;;;2.47;2.13;;;1.60;99.90;;;;;;5032804;28;20486;-81
2021/01/23 08:27:22;;;;;;;3.33;2.67;;;1.60;99.90;;;;;;5032867;28;20454;-80
2021/01/23 08:29:50;;;;;;;3.83;3.10;;;1.70;99.90;;;;;;5032969;28;20890;-81
2021/01/23 08:32:17;;;;;;;3.40;3.10;;;1.70;99.90;;;;;;5032663;28;20421;-80
2021/01/23 08:34:46;;;;;;;2.73;2.53;;;1.80;99.90;;;;;;5032841;28;20439;-80
2021/01/23 08:37:12;;;;;;;3.90;2.27;;;1.90;99.90;;;;;;5032632;28;20462;-81
2021/01/23 08:39:47;;;;;;;4.20;2.50;;;1.90;99.90;;;;;;5032520;28;21034;-82
2021/01/23 08:42:13;;;;;;;2.90;2.43;;;1.90;99.90;;;;;;5033001;28;20446;-82
2021/01/23 08:44:39;;;;;;;3.90;2.70;;;2.00;99.90;;;;;;5034318;28;20482;-82
2021/01/23 08:47:06;;;;;;;3.60;2.63;;;2.10;99.90;;;;;;5036700;28;20442;-82
2021/01/23 08:49:33;;;;;;;3.27;2.53;;;2.10;99.90;;;;;;5036646;28;20485;-82
2021/01/23 08:52:00;;;;;;;3.40;3.10;;;2.10;99.90;;;;;;5036207;28;20951;-83
2021/01/23 08:54:26;;;;;;;4.50;2.97;;;2.20;99.90;;;;;;5036605;28;20489;-83
2021/01/23 08:56:52;;;;;;;5.17;2.50;;;2.20;99.90;;;;;;5036556;28;20446;-83
2021/01/23 08:59:19;;;;;;;6.50;2.30;;;2.20;99.90;;;;;;5036337;28;20520;-83
2021/01/23 09:01:45;;;;;;;4.60;3.40;;;2.20;99.90;;;;;;5036031;28;20405;-82
2021/01/23 09:04:12;;;;;;;2.73;2.50;;;2.30;99.90;;;;;;5036223;28;20457;-82
2021/01/23 09:06:38;;;;;;;3.57;2.90;;;2.30;99.90;;;;;;5036230;28;20450;-82
2021/01/23 09:09:06;;;;;;;3.00;2.40;;;2.30;99.90;;;;;;5035914;28;21022;-82
2021/01/23 09:11:36;;;;;;;2.23;2.03;;;2.30;99.90;;;;;;5036339;28;20948;-82
2021/01/23 09:14:03;;;;;;;3.17;2.50;;;2.40;99.90;;;;;;5035879;28;20478;-81
2021/01/23 09:16:29;;;;;;;2.63;2.43;;;2.40;99.90;;;;;;5036154;28;20461;-83
2021/01/23 09:18:55;;;;;;;3.87;2.97;;;2.40;99.90;;;;;;5035993;28;20478;-79
2021/01/23 09:21:21;;;;;;;3.50;3.00;;;2.50;99.90;;;;;;5035834;28;20427;-79
2021/01/23 09:23:48;;;;;;;2.87;2.57;;;2.40;99.90;;;;;;5035756;28;20431;-79
2021/01/23 09:26:15;;;;;;;2.50;2.30;;;2.60;99.90;;;;;;5035430;28;20912;-79
2021/01/23 09:28:41;;;;;;;5.67;2.87;;;2.70;99.90;;;;;;5035570;28;20592;-78
2021/01/23 09:31:07;;;;;;;3.60;2.60;;;2.70;99.90;;;;;;5035098;28;20895;-79
2021/01/23 09:33:34;;;;;;;4.27;2.27;;;2.80;99.90;;;;;;5035178;28;20824;-79
2021/01/23 09:36:01;;;;;;;4.80;2.27;;;2.90;99.90;;;;;;5035720;28;20406;-84
2021/01/23 09:38:27;;;;;;;2.43;2.23;;;2.90;99.90;;;;;;5035697;28;21038;-84
2021/01/23 09:40:54;;;;;;;2.53;2.33;;;3.00;99.90;;;;;;5035880;28;20435;-83
2021/01/23 09:43:21;;;;;;;2.30;1.93;;;3.00;99.90;;;;;;5035483;28;20439;-82
2021/01/23 09:45:49;;;;;;;2.30;2.10;;;3.10;99.90;;;;;;5035400;28;20497;-82
2021/01/23 09:48:16;;;;;;;2.20;1.97;;;3.10;99.90;;;;;;5035055;28;20517;-80
2021/01/23 09:50:43;;;;;;;2.67;2.03;;;3.00;99.90;;;;;;5035419;28;20421;-81
2021/01/23 09:53:09;;;;;;;2.77;2.17;;;3.20;99.90;;;;;;5035360;28;20426;-81
2021/01/23 09:55:36;;;;;;;1.80;1.70;;;3.10;99.90;;;;;;5034486;28;20434;-81
2021/01/23 09:58:02;;;;;;;2.13;1.93;;;3.10;99.90;;;;;;5035263;28;20478;-80
2021/01/23 10:00:29;;;;;;;2.80;2.40;;;3.10;99.90;;;;;;5035378;28;20434;-80
2021/01/23 10:02:55;;;;;;;2.70;2.47;;;3.10;99.90;;;;;;5035917;28;20435;-79
2021/01/23 10:05:22;;;;;;;2.30;2.10;;;3.10;99.90;;;;;;5034731;28;21037;-80
2021/01/23 10:07:48;;;;;;;3.13;2.47;;;2.90;99.90;;;;;;5034932;28;20435;-80
2021/01/23 10:10:14;;;;;;;2.80;2.53;;;2.90;99.90;;;;;;5034866;28;20411;-80
2021/01/23 10:12:40;;;;;;;2.77;2.10;;;3.00;99.90;;;;;;5034315;28;20445;-77
2021/01/23 10:15:07;;;;;;;2.43;2.20;;;3.00;99.90;;;;;;5034498;28;20446;-77
2021/01/23 10:17:35;;;;;;;2.40;2.13;;;3.00;99.90;;;;;;5034603;28;20423;-77
2021/01/23 10:20:01;;;;;;;4.67;3.40;;;3.00;99.90;;;;;;5034166;28;21025;-77
2021/01/23 10:22:27;;;;;;;3.53;2.20;;;3.10;99.90;;;;;;5034257;28;20427;-76
2021/01/23 10:24:54;;;;;;;2.10;1.77;;;3.10;99.90;;;;;;5199352;22;20492;-82
2021/01/23 10:27:20;;;;;;;2.00;1.80;;;3.20;99.90;;;;;;5054578;28;20438;-82
2021/01/23 10:29:47;;;;;;;3.90;1.80;;;3.30;99.90;;;;;;5054413;28;20462;-82
2021/01/23 10:32:13;;;;;;;1.73;1.63;;;3.40;99.90;;;;;;5054229;28;20914;-81
2021/01/23 10:34:40;;;;;;;2.70;2.30;;;3.50;99.90;;;;;;5054479;28;20448;-82
2021/01/23 10:37:06;;;;;;;2.03;1.80;;;3.60;99.90;;;;;;5054386;28;20396;-81
2021/01/23 10:39:32;;;;;;;2.73;2.50;;;3.70;99.90;;;;;;5054785;28;20515;-81
2021/01/23 10:41:58;;;;;;;2.03;1.93;;;3.80;99.90;;;;;;5054827;28;20791;-81
2021/01/23 10:44:25;;;;;;;1.87;1.77;;;3.80;99.90;;;;;;5054243;28;20462;-81
2021/01/23 10:46:51;;;;;;;2.50;2.10;;;3.90;99.90;;;;;;5054033;28;20433;-81
2021/01/23 10:49:18;;;;;;;2.70;2.10;;;3.90;99.90;;;;;;5054375;28;20833;-81
2021/01/23 10:51:45;;;;;;;2.53;2.33;;;4.00;99.90;;;;;;5054039;28;20426;-81
2021/01/23 10:54:11;;;;;;;3.60;2.30;;;4.00;99.90;;;;;;5054112;28;20438;-81
2021/01/23 10:56:37;;;;;;;4.20;2.50;;;4.10;99.90;;;;;;5053934;28;20407;-81
2021/01/23 10:59:03;;;;;;;2.20;2.07;;;4.20;99.90;;;;;;5053817;28;20515;-81
2021/01/23 11:01:30;;;;;;;2.40;1.67;;;4.20;99.90;;;;;;5053934;28;20442;-81
2021/01/23 11:03:57;;;;;;;2.50;2.10;;;4.30;99.90;;;;;;5053490;28;20441;-81
2021/01/23 11:06:24;;;;;;;2.20;2.10;;;4.30;99.90;;;;;;5053556;28;20438;-81
2021/01/23 11:08:51;;;;;;;5.87;2.00;;;4.30;99.90;;;;;;5053632;28;20473;-81
2021/01/23 11:11:17;;;;;;;5.50;1.53;;;4.30;99.90;;;;;;5054126;28;20438;-81
2021/01/23 11:13:43;;;;;;;3.57;1.77;;;4.30;99.90;;;;;;5053890;28;20480;-81
2021/01/23 11:16:10;;;;;;;2.10;1.93;;;4.40;99.90;;;;;;5054118;28;20426;-81
2021/01/23 11:18:36;;;;;;;2.47;1.80;;;4.40;99.90;;;;;;5053546;28;20467;-81
2021/01/23 11:21:05;;;;;;;3.13;1.67;;;4.40;99.90;;;;;;5054684;28;20488;-81
2021/01/23 11:23:32;;;;;;;4.80;1.97;;;4.30;99.90;;;;;;5054666;28;20531;-81
2021/01/23 11:25:59;;;;;;;3.17;2.20;;;4.40;99.90;;;;;;5053049;28;20485;-82
2021/01/23 11:28:25;;;;;;;1.70;1.60;;;4.50;99.90;;;;;;5053117;28;21089;-79
2021/01/23 11:30:53;;;;;;;1.60;1.50;;;4.40;99.90;;;;;;5053413;28;20430;-81
2021/01/23 11:33:20;;;;;;;2.00;1.73;;;4.40;99.90;;;;;;5053385;28;20434;-82
2021/01/23 11:35:46;;;;;;;4.20;2.00;;;4.30;99.90;;;;;;5053371;28;20484;-81
2021/01/23 11:38:14;;;;;;;3.13;2.07;;;4.30;99.90;;;;;;5053263;28;20466;-81
2021/01/23 11:40:40;;;;;;;2.63;1.73;;;4.20;99.90;;;;;;5053257;28;20587;-81
2021/01/23 11:43:07;;;;;;;4.13;2.37;;;4.20;99.90;;;;;;5053278;28;20426;-81
2021/01/23 11:45:33;;;;;;;3.17;1.80;;;4.30;99.90;;;;;;5053249;28;20488;-80
2021/01/23 11:48:00;;;;;;;2.27;1.97;;;4.20;99.90;;;;;;5053174;28;20461;-81
2021/01/23 11:50:26;;;;;;;2.57;1.80;;;4.20;99.90;;;;;;5052875;28;20973;-82
2021/01/23 11:52:52;;;;;;;3.37;2.30;;;4.30;99.90;;;;;;5052863;28;20436;-83
2021/01/23 11:55:19;;;;;;;3.87;2.73;;;4.20;99.90;;;;;;5053925;28;20434;-82
2021/01/23 11:57:45;;;;;;;2.10;2.00;;;4.20;99.90;;;;;;5053050;28;20478;-82
2021/01/23 12:00:13;;;;;;;3.53;1.67;;;4.20;99.90;;;;;;5052849;28;20791;-81
2021/01/23 12:02:40;;;;;;;1.80;1.70;;;4.20;99.90;;;;;;5052931;28;20430;-84
2021/01/23 12:05:07;;;;;;;1.57;1.40;;;4.20;99.90;;;;;;5055032;28;20466;-83
2021/01/23 12:07:33;;;;;;;1.60;1.50;;;4.30;99.90;;;;;;5054684;28;20441;-83
2021/01/23 12:10:00;;;;;;;3.63;1.90;;;4.30;99.90;;;;;;5054044;28;20451;-83
2021/01/23 12:12:26;;;;;;;2.10;1.70;;;4.40;99.90;;;;;;5053299;28;20480;-83
2021/01/23 12:14:52;;;;;;;2.33;1.50;;;4.40;99.90;;;;;;5053710;28;20854;-83
2021/01/23 12:17:20;;;;;;;2.20;1.73;;;4.50;99.90;;;;;;5053898;28;20450;-83
2021/01/23 12:19:46;;;;;;;3.40;1.93;;;4.50;99.90;;;;;;5055446;28;20590;-83
2021/01/23 12:22:13;;;;;;;1.70;1.57;;;4.60;99.90;;;;;;5057037;28;20441;-83
2021/01/23 12:24:39;;;;;;;1.70;1.60;;;4.50;99.90;;;;;;5056856;28;20486;-83
2021/01/23 12:27:07;;;;;;;1.90;1.70;;;4.70;99.90;;;;;;5057505;28;20450;-82
2021/01/23 12:29:33;;;;;;;2.13;1.63;;;4.60;99.90;;;;;;5058103;28;20592;-82
2021/01/23 12:32:01;;;;;;;2.30;2.10;;;4.60;99.90;;;;;;5057875;28;20456;-82
2021/01/23 12:34:28;;;;;;;1.83;1.73;;;4.50;99.90;;;;;;5059580;28;20437;-81
2021/01/23 12:36:54;;;;;;;2.37;2.17;;;4.60;99.90;;;;;;5061216;28;20453;-81
2021/01/23 12:39:22;;;;;;;5.57;2.20;;;4.60;99.90;;;;;;5061464;28;20465;-81
2021/01/23 12:41:50;;;;;;;3.43;1.97;;;4.60;99.90;;;;;;5066968;28;20445;-82
2021/01/23 12:44:16;;;;;;;2.20;2.10;;;4.60;99.90;;;;;;5070039;28;20477;-82
2021/01/23 12:46:42;;;;;;;3.00;2.37;;;4.70;99.90;;;;;;5057223;28;20503;-82
2021/01/23 12:49:08;;;;;;;3.77;3.37;;;4.70;99.90;;;;;;5056699;28;20465;-81
2021/01/23 12:51:36;;;;;;;4.70;3.53;;;4.70;99.90;;;;;;5062111;28;20476;-82
2021/01/23 12:54:03;;;;;;;6.47;4.13;;;4.60;99.90;;;;;;5069059;28;21031;-81
2021/01/23 12:56:29;;;;;;;5.53;4.40;;;4.50;99.90;;;;;;5067312;28;20445;-78
2021/01/23 12:58:55;;;;;;;3.90;3.10;;;4.50;99.90;;;;;;5056114;28;20466;-80
2021/01/23 13:01:21;;;;;;;3.93;3.47;;;4.50;99.90;;;;;;5056076;28;20520;-80
2021/01/23 13:03:47;;;;;;;5.50;3.50;;;4.40;99.90;;;;;;5056142;28;20449;-81